createdAt,value
2023-04-09T00:02:03.484Z,28.57
2023-04-09T00:04:30.468Z,27.13
2023-04-09T00:06:57.668Z,28.13
2023-04-09T00:09:24.553Z,29.17
2023-04-09T00:11:51.300Z,28.57
2023-04-09T00:14:18.450Z,30.73
2023-04-09T00:16:45.277Z,32.17
2023-04-09T00:19:12.943Z,35.43
2023-04-09T00:21:39.764Z,34.63
2023-04-09T00:24:06.531Z,33.70
2023-04-09T00:26:33.267Z,30.57
2023-04-09T00:29:00.056Z,30.93
2023-04-09T00:31:26.870Z,30.13
2023-04-09T00:33:53.739Z,30.57
2023-04-09T00:36:20.424Z,28.53
2023-04-09T00:38:48.778Z,28.40
2023-04-09T00:41:15.644Z,31.67
2023-04-09T00:43:42.398Z,30.90
2023-04-09T00:46:09.328Z,30.70
2023-04-09T00:48:36.109Z,30.33
2023-04-09T00:51:03.294Z,30.40
2023-04-09T00:53:30.136Z,29.10
2023-04-09T00:55:56.957Z,29.90
2023-04-09T00:58:23.906Z,31.03
2023-04-09T01:00:50.911Z,31.20
2023-04-09T01:03:17.890Z,30.40
2023-04-09T01:05:54.101Z,30.63
2023-04-09T01:08:32.897Z,29.33
2023-04-09T01:11:09.250Z,29.33
2023-04-09T01:13:42.647Z,30.73
2023-04-09T01:16:10.831Z,30.83
2023-04-09T01:18:41.392Z,31.13
2023-04-09T01:21:11.145Z,31.67
2023-04-09T01:23:58.205Z,29.70
2023-04-09T01:26:50.124Z,30.37
2023-04-09T01:29:18.576Z,32.30
2023-04-09T01:31:45.538Z,32.03
2023-04-09T01:34:13.141Z,31.13
2023-04-09T01:36:40.609Z,32.33
2023-04-09T01:39:07.603Z,31.73
2023-04-09T01:41:35.488Z,31.57
2023-04-09T01:44:03.658Z,31.13
2023-04-09T01:46:31.351Z,30.60
2023-04-09T01:48:58.607Z,30.70
2023-04-09T01:51:26.742Z,28.00
2023-04-09T01:53:53.477Z,29.53
2023-04-09T01:56:21.493Z,29.60
2023-04-09T01:58:48.279Z,29.50
2023-04-09T02:01:24.522Z,29.40
2023-04-09T02:03:53.256Z,29.10
2023-04-09T02:06:31.888Z,29.90
2023-04-09T02:08:59.373Z,29.00
2023-04-09T02:11:27.012Z,27.57
2023-04-09T02:13:54.598Z,26.53
2023-04-09T02:16:22.043Z,29.37
2023-04-09T02:18:53.314Z,28.43
2023-04-09T02:21:20.531Z,27.20
2023-04-09T02:23:47.233Z,29.50
2023-04-09T02:26:13.996Z,30.73
2023-04-09T02:28:40.866Z,32.33
2023-04-09T02:31:07.671Z,31.50
2023-04-09T02:33:34.424Z,31.50
2023-04-09T02:36:01.212Z,30.23
2023-04-09T02:38:27.985Z,31.63
2023-04-09T02:40:55.376Z,30.17
2023-04-09T02:43:22.146Z,30.77
2023-04-09T02:45:48.882Z,31.50
2023-04-09T02:48:16.452Z,31.17
2023-04-09T02:50:44.697Z,32.37
2023-04-09T02:53:11.537Z,31.83
2023-04-09T02:55:38.214Z,30.93
2023-04-09T02:58:04.952Z,32.27
2023-04-09T03:00:31.725Z,31.83
2023-04-09T03:02:58.679Z,31.43
2023-04-09T03:05:25.495Z,30.93
2023-04-09T03:07:52.234Z,31.33
2023-04-09T03:10:18.988Z,31.07
2023-04-09T03:12:47.977Z,32.37
2023-04-09T03:15:14.740Z,32.50
2023-04-09T03:17:41.597Z,32.37
2023-04-09T03:20:08.531Z,32.30
2023-04-09T03:22:38.456Z,31.47
2023-04-09T03:25:13.563Z,32.10
2023-04-09T03:27:40.407Z,30.77
2023-04-09T03:30:07.485Z,30.57
2023-04-09T03:32:41.150Z,29.77
2023-04-09T03:35:10.310Z,31.10
2023-04-09T03:37:39.336Z,33.10
2023-04-09T03:40:08.613Z,31.67
2023-04-09T03:42:36.441Z,30.07
2023-04-09T03:45:04.505Z,31.13
2023-04-09T03:47:40.043Z,32.70
2023-04-09T03:50:07.663Z,32.93
2023-04-09T03:52:46.117Z,32.27
2023-04-09T03:55:13.426Z,33.10
2023-04-09T03:57:40.645Z,32.37
2023-04-09T04:00:11.967Z,33.80
2023-04-09T04:02:52.025Z,33.63
2023-04-09T04:05:36.475Z,31.43
2023-04-09T04:08:08.170Z,31.93
2023-04-09T04:10:35.085Z,35.00
2023-04-09T04:13:02.478Z,31.77
2023-04-09T04:15:44.038Z,34.07
2023-04-09T04:18:13.724Z,33.97
2023-04-09T04:20:50.159Z,34.90
2023-04-09T04:23:17.574Z,34.20
2023-04-09T04:25:58.185Z,34.37
2023-04-09T04:28:36.568Z,35.53
2023-04-09T04:31:11.131Z,33.63
2023-04-09T04:33:39.762Z,36.63
2023-04-09T04:36:12.208Z,36.30
2023-04-09T04:38:42.819Z,36.50
2023-04-09T04:41:16.509Z,36.20
2023-04-09T04:43:51.208Z,34.13
2023-04-09T04:46:23.357Z,35.43
2023-04-09T04:48:50.397Z,36.07
2023-04-09T04:51:18.211Z,36.43
2023-04-09T04:53:58.104Z,35.27
2023-04-09T04:56:25.876Z,36.37
2023-04-09T04:59:02.527Z,36.10
2023-04-09T05:01:35.910Z,36.00
2023-04-09T05:04:06.954Z,36.87
2023-04-09T05:06:36.426Z,37.03
2023-04-09T05:09:07.535Z,36.83
2023-04-09T05:11:44.299Z,35.93
2023-04-09T05:14:16.215Z,37.87
2023-04-09T05:16:43.039Z,35.37
2023-04-09T05:19:10.212Z,35.30
2023-04-09T05:21:37.918Z,38.53
2023-04-09T05:24:06.351Z,37.03
2023-04-09T05:26:34.126Z,38.57
2023-04-09T05:29:02.365Z,37.87
2023-04-09T05:31:29.316Z,37.50
2023-04-09T05:34:01.733Z,36.40
2023-04-09T05:36:36.502Z,37.67
2023-04-09T05:39:03.764Z,37.30
2023-04-09T05:41:32.831Z,37.97
2023-04-09T05:44:17.747Z,37.77
2023-04-09T05:46:44.775Z,35.83
2023-04-09T05:49:15.026Z,36.53
2023-04-09T05:51:44.203Z,36.47
2023-04-09T05:54:11.575Z,36.40
2023-04-09T05:56:38.618Z,37.60
2023-04-09T05:59:06.188Z,36.47
2023-04-09T06:01:33.212Z,37.10
2023-04-09T06:04:00.363Z,35.90
2023-04-09T06:06:30.275Z,36.33
2023-04-09T06:08:57.087Z,36.47
2023-04-09T06:11:23.889Z,35.90
2023-04-09T06:13:51.641Z,36.73
2023-04-09T06:16:18.604Z,35.60
2023-04-09T06:18:46.965Z,36.90
2023-04-09T06:21:13.866Z,37.27
2023-04-09T06:23:41.284Z,36.30
2023-04-09T06:26:08.031Z,37.00
2023-04-09T06:28:34.951Z,35.73
2023-04-09T06:31:02.102Z,36.53
2023-04-09T06:33:29.488Z,34.97
2023-04-09T06:35:56.569Z,36.00
2023-04-09T06:38:23.470Z,35.50
2023-04-09T06:40:50.604Z,34.77
2023-04-09T06:43:17.344Z,34.10
2023-04-09T06:45:49.915Z,33.73
2023-04-09T06:48:16.838Z,33.53
2023-04-09T06:50:44.148Z,33.53
2023-04-09T06:53:11.053Z,30.93
2023-04-09T06:55:37.819Z,32.43
2023-04-09T06:58:04.570Z,31.70
2023-04-09T07:00:31.389Z,29.90
2023-04-09T07:02:58.387Z,27.90
2023-04-09T07:05:25.771Z,27.13
2023-04-09T07:07:52.807Z,26.63
2023-04-09T07:10:19.535Z,24.33
2023-04-09T07:12:46.315Z,25.20
2023-04-09T07:15:13.048Z,24.60
2023-04-09T07:17:39.930Z,24.47
2023-04-09T07:20:06.901Z,24.37
2023-04-09T07:22:33.855Z,22.00
2023-04-09T07:25:00.778Z,24.10
2023-04-09T07:27:27.782Z,23.10
2023-04-09T07:29:55.761Z,21.27
2023-04-09T07:32:22.691Z,21.10
2023-04-09T07:34:51.376Z,21.00
2023-04-09T07:37:18.264Z,20.10
2023-04-09T07:39:45.109Z,22.13
2023-04-09T07:42:11.866Z,20.97
2023-04-09T07:44:38.909Z,21.30
2023-04-09T07:47:07.158Z,18.33
2023-04-09T07:49:35.867Z,19.57
2023-04-09T07:52:02.569Z,20.30
2023-04-09T07:54:30.660Z,20.63
2023-04-09T07:56:57.939Z,20.47
2023-04-09T07:59:24.901Z,19.30
2023-04-09T08:01:51.773Z,18.50
2023-04-09T08:04:18.887Z,19.53
2023-04-09T08:06:50.917Z,19.70
2023-04-09T08:09:18.676Z,18.73
2023-04-09T08:11:48.623Z,18.63
2023-04-09T08:14:16.425Z,19.17
2023-04-09T08:16:44.420Z,16.83
2023-04-09T08:19:11.244Z,16.00
2023-04-09T08:21:39.039Z,16.50
2023-04-09T08:24:07.300Z,17.53
2023-04-09T08:26:34.096Z,16.70
2023-04-09T08:29:01.077Z,17.77
2023-04-09T08:31:27.866Z,17.57
2023-04-09T08:33:54.821Z,16.93
2023-04-09T08:36:21.829Z,16.57
2023-04-09T08:38:49.373Z,16.60
2023-04-09T08:41:19.457Z,17.00
2023-04-09T08:46:20.128Z,14.17
2023-04-09T08:48:47.851Z,13.07
2023-04-09T08:51:16.165Z,14.37
2023-04-09T08:53:46.575Z,11.10
2023-04-09T08:56:14.338Z,9.73
2023-04-09T08:58:45.462Z,8.83
2023-04-09T09:01:22.555Z,7.43
2023-04-09T09:03:57.286Z,8.20
2023-04-09T09:06:26.402Z,8.97
2023-04-09T09:09:04.447Z,7.97
2023-04-09T09:11:31.351Z,5.23
2023-04-09T09:13:59.040Z,5.10
2023-04-09T09:16:26.510Z,5.30
2023-04-09T09:18:54.520Z,4.67
2023-04-09T09:21:21.881Z,4.10
2023-04-09T09:23:50.710Z,4.83
2023-04-09T09:26:18.998Z,4.27
2023-04-09T09:28:47.142Z,3.97
2023-04-09T09:31:14.606Z,3.77
2023-04-09T09:33:41.658Z,4.10
2023-04-09T09:36:11.421Z,4.10
2023-04-09T09:38:54.198Z,4.20
2023-04-09T09:41:21.574Z,4.00
2023-04-09T09:43:48.690Z,3.67
2023-04-09T09:46:16.252Z,4.03
2023-04-09T09:48:43.161Z,4.00
2023-04-09T09:51:11.163Z,4.83
2023-04-09T09:53:38.889Z,4.77
2023-04-09T09:56:06.215Z,4.23
2023-04-09T09:58:36.975Z,4.23
2023-04-09T10:01:07.932Z,4.70
2023-04-09T10:03:35.806Z,4.57
2023-04-09T10:06:03.349Z,3.60
2023-04-09T10:08:31.291Z,4.70
2023-04-09T10:10:58.019Z,4.40
2023-04-09T10:13:27.309Z,3.90
2023-04-09T10:15:54.566Z,4.37
2023-04-09T10:18:21.556Z,3.93
2023-04-09T10:20:59.540Z,4.20
2023-04-09T10:23:42.625Z,4.47
2023-04-09T10:26:09.376Z,4.93
2023-04-09T10:28:39.062Z,4.50
2023-04-09T10:31:06.965Z,4.80
2023-04-09T10:33:36.158Z,4.77
2023-04-09T10:36:12.929Z,4.60
2023-04-09T10:38:43.160Z,4.70
2023-04-09T10:41:14.125Z,4.47
2023-04-09T10:43:41.320Z,4.20
2023-04-09T10:46:08.569Z,4.80
2023-04-09T10:48:35.408Z,4.97
2023-04-09T10:51:05.629Z,4.30
2023-04-09T10:53:32.390Z,4.80
2023-04-09T10:55:59.117Z,3.83
2023-04-09T10:58:26.423Z,4.20
2023-04-09T11:00:53.991Z,4.33
2023-04-09T11:03:24.981Z,4.47
2023-04-09T11:05:52.931Z,4.07
2023-04-09T11:08:22.283Z,4.67
2023-04-09T11:10:51.795Z,4.20
2023-04-09T11:13:21.099Z,3.73
2023-04-09T11:15:49.085Z,4.37
2023-04-09T11:18:19.718Z,4.77
2023-04-09T11:20:46.477Z,3.50
2023-04-09T11:23:13.546Z,4.37
2023-04-09T11:25:40.362Z,4.10
2023-04-09T11:28:08.295Z,3.90
2023-04-09T11:30:35.867Z,4.13
2023-04-09T11:33:02.742Z,4.50
2023-04-09T11:35:30.328Z,5.30
2023-04-09T11:37:57.212Z,5.13
2023-04-09T11:40:26.327Z,4.80
2023-04-09T11:42:53.639Z,4.33
2023-04-09T11:45:23.410Z,3.93
2023-04-09T11:47:50.477Z,3.97
2023-04-09T11:50:17.512Z,4.60
2023-04-09T11:52:45.595Z,5.30
2023-04-09T11:55:12.383Z,4.10
2023-04-09T11:57:43.118Z,4.43
2023-04-09T12:00:14.202Z,4.20
2023-04-09T12:02:50.801Z,3.90
2023-04-09T12:05:21.884Z,4.03
2023-04-09T12:07:55.373Z,4.87
2023-04-09T12:10:26.580Z,3.67
2023-04-09T12:12:53.516Z,4.07
2023-04-09T12:15:24.863Z,3.90
2023-04-09T12:17:53.798Z,3.83
2023-04-09T12:20:30.688Z,4.27
2023-04-09T12:22:58.240Z,3.80
2023-04-09T12:25:25.098Z,4.13
2023-04-09T12:27:51.883Z,4.00
2023-04-09T12:30:18.633Z,4.00
2023-04-09T12:32:46.183Z,4.33
2023-04-09T12:35:13.447Z,3.50
2023-04-09T12:37:40.538Z,3.47
2023-04-09T12:40:07.729Z,3.93
2023-04-09T12:42:34.510Z,4.17
2023-04-09T12:45:01.434Z,4.07
2023-04-09T12:47:28.307Z,3.80
2023-04-09T12:49:55.178Z,4.10
2023-04-09T12:52:22.743Z,4.87
2023-04-09T12:54:49.446Z,4.23
2023-04-09T12:57:16.626Z,4.50
2023-04-09T12:59:43.473Z,3.87
2023-04-09T13:02:10.763Z,3.90
2023-04-09T13:04:37.753Z,4.27
2023-04-09T13:07:04.522Z,4.43
2023-04-09T13:09:31.828Z,4.70
2023-04-09T13:11:58.625Z,4.30
2023-04-09T13:14:25.371Z,4.37
2023-04-09T13:16:52.913Z,4.23
2023-04-09T13:19:19.957Z,4.23
2023-04-09T13:21:46.733Z,4.30
2023-04-09T13:24:13.615Z,4.30
2023-04-09T13:26:41.720Z,4.73
2023-04-09T13:29:08.492Z,4.23
2023-04-09T13:31:38.045Z,4.07
2023-04-09T13:34:04.878Z,5.60
2023-04-09T13:36:31.807Z,5.13
2023-04-09T13:39:04.569Z,5.07
2023-04-09T13:41:32.307Z,4.93
2023-04-09T13:43:59.634Z,5.40
2023-04-09T13:46:26.482Z,4.87
2023-04-09T13:48:55.125Z,4.97
2023-04-09T13:51:22.311Z,5.77
2023-04-09T13:53:49.346Z,4.70
2023-04-09T13:56:16.857Z,4.43
2023-04-09T13:58:43.987Z,5.50
2023-04-09T14:01:15.939Z,4.67
2023-04-09T14:03:43.536Z,4.77
2023-04-09T14:06:10.570Z,4.97
2023-04-09T14:08:37.451Z,4.90
2023-04-09T14:11:04.316Z,4.63
2023-04-09T14:13:31.287Z,4.60
2023-04-09T14:16:00.333Z,4.90
2023-04-09T14:18:27.683Z,12.73
2023-04-09T14:20:54.549Z,11.23
2023-04-09T14:23:21.684Z,6.90
2023-04-09T14:25:48.607Z,4.60
2023-04-09T14:28:15.607Z,4.47
2023-04-09T14:30:42.334Z,4.23
2023-04-09T14:33:09.147Z,4.20
2023-04-09T14:35:36.092Z,4.13
2023-04-09T14:38:04.640Z,4.13
2023-04-09T14:40:32.320Z,3.83
2023-04-09T14:42:59.809Z,4.07
2023-04-09T14:45:28.761Z,4.57
2023-04-09T14:47:57.018Z,3.70
2023-04-09T14:50:23.769Z,4.03
2023-04-09T14:52:50.952Z,4.03
2023-04-09T14:55:17.727Z,6.10
2023-04-09T14:57:44.778Z,4.57
2023-04-09T15:00:12.437Z,4.50
2023-04-09T15:02:39.709Z,3.47
2023-04-09T15:05:07.096Z,4.70
2023-04-09T15:07:33.989Z,5.17
2023-04-09T15:10:01.341Z,4.53
2023-04-09T15:12:29.280Z,4.30
2023-04-09T15:14:57.435Z,4.33
2023-04-09T15:17:25.266Z,4.83
2023-04-09T15:19:55.865Z,4.43
2023-04-09T15:22:23.227Z,6.87
2023-04-09T15:24:50.884Z,5.23
2023-04-09T15:27:17.876Z,4.73
2023-04-09T15:29:44.659Z,3.40
2023-04-09T15:32:11.493Z,3.80
2023-04-09T15:34:38.290Z,5.57
2023-04-09T15:37:05.466Z,3.50
2023-04-09T15:39:32.743Z,5.07
2023-04-09T15:41:59.640Z,4.43
2023-04-09T15:44:26.559Z,4.17
2023-04-09T15:46:53.471Z,4.17
2023-04-09T15:49:20.243Z,5.10
2023-04-09T15:51:46.959Z,4.37
2023-04-09T15:54:13.755Z,4.00
2023-04-09T15:56:40.829Z,3.70
2023-04-09T15:59:08.549Z,3.80
2023-04-09T16:01:36.376Z,4.40
2023-04-09T16:04:03.804Z,4.37
2023-04-09T16:06:30.954Z,4.60
2023-04-09T16:08:57.751Z,4.00
2023-04-09T16:11:24.500Z,4.23
2023-04-09T16:13:51.251Z,3.60
2023-04-09T16:16:17.996Z,4.13
2023-04-09T16:18:44.783Z,4.17
2023-04-09T16:21:11.498Z,4.17
2023-04-09T16:23:38.737Z,4.40
2023-04-09T16:26:05.928Z,4.50
2023-04-09T16:28:32.691Z,3.60
2023-04-09T16:30:59.640Z,4.40
2023-04-09T16:33:26.806Z,4.43
2023-04-09T16:35:53.878Z,4.10
2023-04-09T16:38:20.930Z,3.63
2023-04-09T16:40:47.692Z,4.40
2023-04-09T16:43:14.474Z,4.10
2023-04-09T16:45:41.433Z,3.30
2023-04-09T16:48:12.622Z,3.57
2023-04-09T16:50:39.996Z,4.37
2023-04-09T16:53:06.802Z,3.77
2023-04-09T16:55:33.912Z,4.60
2023-04-09T16:58:01.187Z,3.90
2023-04-09T17:00:27.963Z,3.63
2023-04-09T17:02:56.061Z,3.90
2023-04-09T17:05:23.036Z,4.90
2023-04-09T17:07:49.742Z,5.20
2023-04-09T17:10:16.622Z,4.37
2023-04-09T17:12:43.786Z,4.47
2023-04-09T17:15:10.867Z,4.27
2023-04-09T17:17:38.290Z,4.17
2023-04-09T17:20:05.860Z,4.03
2023-04-09T17:22:32.704Z,3.97
2023-04-09T17:24:59.468Z,4.10
2023-04-09T17:27:26.194Z,4.30
2023-04-09T17:29:54.040Z,3.23
2023-04-09T17:32:20.938Z,4.00
2023-04-09T17:34:49.516Z,3.73
2023-04-09T17:37:16.799Z,4.10
2023-04-09T17:39:43.720Z,3.97
2023-04-09T17:42:11.955Z,3.13
2023-04-09T17:44:38.858Z,4.53
2023-04-09T17:47:07.553Z,4.30
2023-04-09T17:49:34.934Z,4.17
2023-04-09T17:52:01.820Z,4.47
2023-04-09T17:54:34.886Z,3.90
2023-04-09T17:57:02.575Z,4.67
2023-04-09T17:59:29.384Z,4.60
2023-04-09T18:01:57.024Z,4.60
2023-04-09T18:04:24.268Z,4.60
2023-04-09T18:06:51.633Z,4.40
2023-04-09T18:09:18.707Z,4.40
2023-04-09T18:11:46.028Z,4.57
2023-04-09T18:14:12.839Z,4.50
2023-04-09T18:16:39.800Z,4.20
2023-04-09T18:19:06.834Z,4.70
2023-04-09T18:21:36.493Z,4.33
2023-04-09T18:24:03.874Z,4.57
2023-04-09T18:26:31.505Z,4.37
2023-04-09T18:29:00.836Z,5.33
2023-04-09T18:31:28.156Z,4.50
2023-04-09T18:33:54.955Z,4.70
2023-04-09T18:36:21.740Z,4.60
2023-04-09T18:38:49.065Z,4.37
2023-04-09T18:41:23.356Z,4.40
2023-04-09T18:43:50.106Z,5.17
2023-04-09T18:46:18.717Z,5.20
2023-04-09T18:48:47.183Z,5.20
2023-04-09T18:51:14.763Z,5.83
2023-04-09T18:53:42.285Z,4.97
2023-04-09T18:56:09.468Z,5.70
2023-04-09T18:58:36.508Z,5.27
2023-04-09T19:01:09.857Z,5.17
2023-04-09T19:03:36.865Z,5.70
2023-04-09T19:06:10.182Z,5.63
2023-04-09T19:08:38.435Z,6.03
2023-04-09T19:11:06.640Z,6.43
2023-04-09T19:13:33.482Z,6.40
2023-04-09T19:16:00.224Z,6.50
2023-04-09T19:18:27.014Z,6.80
2023-04-09T19:20:53.824Z,5.57
2023-04-09T19:23:20.527Z,5.70
2023-04-09T19:25:51.878Z,5.50
2023-04-09T19:28:18.787Z,6.23
2023-04-09T19:30:45.603Z,6.30
2023-04-09T19:33:12.556Z,7.03
2023-04-09T19:35:41.138Z,7.13
2023-04-09T19:38:08.198Z,7.20
2023-04-09T19:40:35.036Z,6.50
2023-04-09T19:43:01.876Z,6.80
2023-04-09T19:45:28.808Z,5.90
2023-04-09T19:47:56.113Z,6.47
2023-04-09T19:50:23.153Z,6.27
2023-04-09T19:52:49.825Z,5.83
2023-04-09T19:55:17.367Z,6.40
2023-04-09T19:57:46.080Z,6.40
2023-04-09T20:00:13.246Z,5.80
2023-04-09T20:02:41.737Z,5.77
2023-04-09T20:05:09.315Z,6.00
2023-04-09T20:07:36.292Z,7.30
2023-04-09T20:10:03.574Z,7.60
2023-04-09T20:12:30.372Z,9.20
2023-04-09T20:14:57.497Z,13.50
2023-04-09T20:17:24.721Z,13.80
2023-04-09T20:19:51.905Z,13.30
2023-04-09T20:22:18.650Z,13.57
2023-04-09T20:24:45.897Z,14.10
2023-04-09T20:27:12.907Z,9.20
2023-04-09T20:29:39.956Z,10.20
2023-04-09T20:32:06.716Z,7.30
2023-04-09T20:34:33.582Z,7.63
2023-04-09T20:37:00.564Z,7.00
2023-04-09T20:39:27.409Z,6.70
2023-04-09T20:41:55.267Z,6.93
2023-04-09T20:44:22.666Z,6.27
2023-04-09T20:46:49.399Z,5.77
2023-04-09T20:49:16.570Z,7.50
2023-04-09T20:51:43.272Z,6.30
2023-04-09T20:54:10.100Z,6.73
2023-04-09T20:56:36.769Z,5.60
2023-04-09T20:59:03.740Z,4.97
2023-04-09T21:01:30.496Z,5.03
2023-04-09T21:03:57.689Z,5.40
2023-04-09T21:06:24.520Z,5.57
2023-04-09T21:08:51.846Z,5.77
2023-04-09T21:11:18.719Z,5.67
2023-04-09T21:16:15.545Z,5.37
2023-04-09T21:18:42.683Z,5.50
2023-04-09T21:21:09.549Z,6.90
2023-04-09T21:23:36.291Z,6.03
2023-04-09T21:26:03.665Z,6.17
2023-04-09T21:28:31.048Z,7.13
2023-04-09T21:30:58.028Z,6.37
2023-04-09T21:33:26.629Z,6.33
2023-04-09T21:35:54.694Z,5.77
2023-04-09T21:38:21.786Z,6.07
2023-04-09T21:40:48.576Z,6.00
2023-04-09T21:43:15.279Z,5.27
2023-04-09T21:45:42.383Z,5.50
2023-04-09T21:48:09.371Z,5.50
2023-04-09T21:50:36.215Z,5.23
2023-04-09T21:53:03.374Z,5.43
2023-04-09T21:55:30.598Z,4.80
2023-04-09T21:57:57.416Z,4.97
2023-04-09T22:00:24.221Z,5.00
2023-04-09T22:02:51.218Z,4.93
2023-04-09T22:05:18.131Z,5.23
2023-04-09T22:07:45.361Z,5.17
2023-04-09T22:10:12.083Z,5.00
2023-04-09T22:12:38.829Z,5.97
2023-04-09T22:15:06.248Z,6.87
2023-04-09T22:17:33.060Z,6.63
2023-04-09T22:19:59.775Z,6.23
2023-04-09T22:22:27.126Z,6.20
2023-04-09T22:24:53.937Z,6.00
2023-04-09T22:27:20.663Z,6.27
2023-04-09T22:29:47.443Z,5.90
2023-04-09T22:32:14.158Z,5.53
2023-04-09T22:34:41.232Z,5.63
2023-04-09T22:37:07.939Z,5.60
2023-04-09T22:39:34.691Z,5.63
2023-04-09T22:42:01.989Z,5.57
2023-04-09T22:44:29.394Z,5.20
2023-04-09T22:46:56.773Z,5.40
2023-04-09T22:49:24.200Z,5.20
2023-04-09T22:51:51.075Z,5.33
2023-04-09T22:54:17.823Z,5.30
2023-04-09T22:56:45.406Z,5.73
2023-04-09T22:59:12.120Z,5.20
2023-04-09T23:01:38.944Z,4.73
2023-04-09T23:04:06.019Z,5.27
2023-04-09T23:06:32.712Z,5.20
2023-04-09T23:09:02.271Z,5.40
2023-04-09T23:11:29.340Z,4.57
2023-04-09T23:13:56.621Z,4.80
2023-04-09T23:16:23.530Z,4.37
2023-04-09T23:18:50.432Z,5.73
2023-04-09T23:21:17.442Z,5.40
2023-04-09T23:23:44.149Z,5.23
2023-04-09T23:26:11.287Z,5.77
2023-04-09T23:28:37.973Z,5.27
2023-04-09T23:31:05.056Z,5.20
2023-04-09T23:33:32.789Z,4.93
2023-04-09T23:35:59.814Z,5.43
2023-04-09T23:38:27.231Z,5.30
2023-04-09T23:40:54.014Z,5.37
2023-04-09T23:43:20.859Z,5.43
2023-04-09T23:45:49.943Z,4.73
2023-04-09T23:48:17.226Z,5.27
2023-04-09T23:50:43.984Z,4.90
2023-04-09T23:53:11.122Z,4.93
2023-04-09T23:55:38.719Z,4.63
2023-04-09T23:58:05.598Z,4.73
